Time;durP1;ratioP1;P1;durP2;ratioP2;P2;SDS_P1;SDS_P2;PMS_P1;PMS_P2;Temp;Humidity;BMP_temperature;BMP_pressure;BME280_temperature;BME280_humidity;BME280_pressure;Samples;Min_cycle;Max_cycle;Signal;HPM_P1;HPM_P2
2022/06/04 00:00:34;;;;;;;;;27.50;27.50;;;;;18.86;76.16;101236.41;5038994;28;45483;-67
2022/06/04 00:02:59;;;;;;;;;32.25;30.00;;;;;18.84;76.03;101233.84;5042265;28;45519;-68
2022/06/04 00:05:28;;;;;;;;;26.25;26.25;;;;;18.83;75.72;101240.41;5034165;28;46080;-67
2022/06/04 00:07:55;;;;;;;;;25.50;25.25;;;;;18.82;75.70;101248.84;5041721;28;45271;-67
2022/06/04 00:15:55;;;;;;;;;32.75;29.75;;;;;18.68;76.11;101236.78;5036079;28;45345;-67
2022/06/04 00:18:21;;;;;;;;;24.75;24.75;;;;;18.67;76.83;101240.59;5044930;28;45438;-70
2022/06/04 00:20:48;;;;;;;;;31.75;29.00;;;;;18.64;76.91;101239.06;5039121;28;45457;-69
2022/06/04 00:23:14;;;;;;;;;35.00;31.75;;;;;18.65;76.59;101243.53;5045404;28;45247;-68
2022/06/04 00:25:43;;;;;;;;;30.25;28.00;;;;;18.64;76.51;101239.06;5038806;28;45410;-68
2022/06/04 00:28:10;;;;;;;;;26.00;24.00;;;;;18.64;75.66;101230.78;5043429;28;45363;-68
2022/06/04 00:30:37;;;;;;;;;28.25;27.25;;;;;18.63;75.86;101234.59;5042336;28;45282;-68
2022/06/04 00:33:03;;;;;;;;;30.50;28.50;;;;;18.58;76.27;101236.19;5055108;28;45572;-68
2022/06/04 00:35:29;;;;;;;;;30.25;28.00;;;;;18.56;77.01;101241.03;5039796;28;47741;-68
2022/06/04 00:37:55;;;;;;;;;34.50;31.75;;;;;18.50;77.20;101247.25;5044697;28;45217;-68
2022/06/04 00:40:39;;;;;;;;;25.25;24.25;;;;;18.46;76.87;101237.69;5040634;28;45467;-68
2022/06/04 00:43:04;;;;;;;;;31.25;29.25;;;;;18.45;76.92;101234.09;5045183;28;45496;-68
2022/06/04 00:45:36;;;;;;;;;36.00;31.00;;;;;18.44;77.71;101240.63;5054363;28;46416;-68
2022/06/04 00:48:07;;;;;;;;;30.00;28.75;;;;;18.45;77.38;101228.56;5042239;28;45322;-68
2022/06/04 00:50:36;;;;;;;;;29.25;28.25;;;;;18.43;77.16;101219.66;5039673;28;45329;-68
2022/06/04 00:53:04;;;;;;;;;30.75;28.25;;;;;18.45;76.96;101208.47;5043540;28;45555;-68
2022/06/04 00:55:59;;;;;;;;;25.75;25.75;;;;;18.46;76.45;101208.28;5041211;28;46674;-67
2022/06/04 00:58:33;;;;;;;;;28.25;26.00;;;;;18.43;76.78;101200.38;5042947;28;45222;-68
2022/06/04 01:01:26;;;;;;;;;28.25;27.00;;;;;18.40;76.71;101198.03;5059688;28;45258;-68
2022/06/04 01:03:54;;;;;;;;;27.25;26.00;;;;;18.44;76.44;101202.09;5037435;28;45487;-68
2022/06/04 01:06:28;;;;;;;;;33.75;30.00;;;;;18.42;77.52;101204.19;5042322;28;46685;-68
2022/06/04 01:09:12;;;;;;;;;29.25;28.00;;;;;18.41;77.25;101205.22;5042175;28;45362;-68
2022/06/04 01:12:11;;;;;;;;;35.00;31.25;;;;;18.41;77.22;101196.97;5060062;28;45442;-68
2022/06/04 01:14:42;;;;;;;;;28.00;26.25;;;;;18.39;76.85;101196.31;5041938;28;45169;-67
2022/06/04 01:17:32;;;;;;;;;23.75;23.25;;;;;18.42;76.82;101189.56;5041127;28;45543;-70
2022/06/04 01:20:22;;;;;;;;;29.25;27.00;;;;;18.38;76.10;101182.75;5037799;28;45429;-68
2022/06/04 01:23:00;;;;;;;;;31.75;30.00;;;;;18.44;76.09;101193.00;5044322;28;45360;-68
2022/06/04 01:25:56;;;;;;;;;28.25;27.50;;;;;18.39;76.61;101179.81;5038039;28;45689;-68
2022/06/04 01:28:23;;;;;;;;;31.00;30.25;;;;;18.38;76.41;101182.75;5040355;28;46963;-68
2022/06/04 01:30:54;;;;;;;;;35.50;32.25;;;;;18.36;76.75;101182.06;5041035;28;45453;-69
2022/06/04 01:33:43;;;;;;;;;35.00;32.75;;;;;18.36;76.64;101176.56;5044212;28;45277;-68
2022/06/04 01:36:16;;;;;;;;;31.00;28.00;;;;;18.35;76.31;101161.97;5043215;28;45552;-68
2022/06/04 01:39:00;;;;;;;;;43.50;34.00;;;;;18.37;76.20;101164.53;5042036;28;45762;-67
2022/06/04 01:41:37;;;;;;;;;42.25;36.25;;;;;18.35;76.02;101161.09;5040259;28;45272;-67
2022/06/04 01:44:12;;;;;;;;;39.50;33.50;;;;;18.32;76.32;101165.09;5042565;28;45693;-67
2022/06/04 01:46:46;;;;;;;;;43.00;35.75;;;;;18.31;75.67;101170.78;5041607;28;45452;-68
2022/06/04 01:49:14;;;;;;;;;46.75;37.00;;;;;18.27;75.18;101182.16;5040269;28;45704;-69
2022/06/04 01:51:40;;;;;;;;;42.50;36.50;;;;;18.25;76.34;101172.41;5041631;28;45343;-68
2022/06/04 01:54:19;;;;;;;;;39.50;34.50;;;;;18.25;76.47;101164.16;5039167;28;45328;-67
2022/06/04 01:56:51;;;;;;;;;42.75;37.00;;;;;18.23;76.71;101164.34;5044626;28;45221;-68
2022/06/04 01:59:23;;;;;;;;;45.25;35.75;;;;;18.19;77.14;101162.16;5041787;28;45440;-67
2022/06/04 02:01:52;;;;;;;;;43.00;36.50;;;;;18.13;77.29;101146.38;5043889;28;45338;-67
2022/06/04 02:04:23;;;;;;;;;43.25;35.75;;;;;18.19;76.86;101160.22;5041971;28;45544;-67
2022/06/04 02:09:45;;;;;;;;;48.50;39.00;;;;;18.15;77.64;101171.81;5039108;28;45385;-68
2022/06/04 02:12:13;;;;;;;;;50.00;42.00;;;;;18.17;77.23;101170.59;5039766;28;45346;-67
2022/06/04 02:14:42;;;;;;;;;53.25;43.50;;;;;18.08;77.93;101168.97;5039293;28;45357;-67
2022/06/04 02:17:13;;;;;;;;;52.25;43.25;;;;;18.10;77.73;101179.78;5040304;28;45302;-69
2022/06/04 02:19:40;;;;;;;;;53.25;43.00;;;;;18.12;77.48;101163.91;5039216;28;45454;-68
2022/06/04 02:22:06;;;;;;;;;51.75;44.00;;;;;18.17;77.23;101175.22;5039268;28;45243;-67
2022/06/04 02:24:32;;;;;;;;;57.25;46.25;;;;;18.18;77.48;101171.44;5031098;28;45445;-67
2022/06/04 02:26:57;;;;;;;;;54.25;45.00;;;;;18.16;77.77;101179.03;5041412;28;45511;-67
2022/06/04 02:29:23;;;;;;;;;52.00;41.00;;;;;18.14;77.89;101178.34;5040721;28;45424;-68
2022/06/04 02:32:10;;;;;;;;;52.00;43.50;;;;;18.12;77.61;101177.66;5043006;28;45382;-67
2022/06/04 02:35:10;;;;;;;;;49.00;41.25;;;;;18.21;77.41;101169.16;5040094;28;45423;-67
2022/06/04 02:38:00;;;;;;;;;47.75;39.25;;;;;18.28;77.24;101145.34;5043481;28;45413;-68
2022/06/04 02:40:36;;;;;;;;;42.75;37.25;;;;;18.31;77.28;101133.13;5038919;28;46527;-68
2022/06/04 02:43:10;;;;;;;;;46.00;38.25;;;;;18.38;76.60;101135.97;5043002;28;45458;-67
2022/06/04 02:45:41;;;;;;;;;34.75;29.75;;;;;18.33;75.77;101136.56;5037326;28;45419;-67
2022/06/04 02:48:18;;;;;;;;;38.50;34.50;;;;;18.27;76.65;101149.16;5041727;28;45247;-67
2022/06/04 02:50:54;;;;;;;;;32.25;30.00;;;;;18.28;76.92;101150.00;5036381;28;46182;-67
2022/06/04 02:53:20;;;;;;;;;35.25;31.75;;;;;18.27;77.07;101153.78;5036426;28;45374;-68
2022/06/04 02:55:50;;;;;;;;;34.75;33.00;;;;;18.30;76.83;101150.69;5035980;28;45509;-67
2022/06/04 02:58:19;;;;;;;;;30.75;30.50;;;;;18.34;76.64;101137.41;5043399;28;45268;-67
2022/06/04 03:00:48;;;;;;;;;27.00;26.75;;;;;18.36;75.73;101138.06;5040127;28;45400;-68
2022/06/04 03:03:14;;;;;;;;;33.00;31.75;;;;;18.36;76.30;101132.56;5042770;28;45418;-68
2022/06/04 03:05:53;;;;;;;;;34.25;30.25;;;;;18.36;75.94;101127.91;5039047;28;45497;-67
2022/06/04 03:08:19;;;;;;;;;31.25;31.00;;;;;18.37;75.93;101121.38;5043242;28;45497;-68
2022/06/04 03:10:46;;;;;;;;;30.25;28.50;;;;;18.23;77.08;101116.72;5038042;28;46851;-68
2022/06/04 03:13:11;;;;;;;;;33.75;31.50;;;;;18.25;76.84;101131.16;5042785;28;45381;-67
2022/06/04 03:15:36;;;;;;;;;30.50;29.75;;;;;18.26;76.67;101108.94;5052272;28;45538;-68
2022/06/04 03:18:02;;;;;;;;;34.25;30.00;;;;;18.28;76.05;101111.50;5043594;28;45433;-68
2022/06/04 03:20:27;;;;;;;;;37.00;30.75;;;;;18.29;75.95;101110.47;5035659;28;46652;-68
2022/06/04 03:22:53;;;;;;;;;29.00;28.25;;;;;18.28;76.67;101117.84;5042701;28;45314;-68
2022/06/04 03:25:19;;;;;;;;;31.50;30.00;;;;;18.29;76.34;101107.72;5036152;28;45252;-67
2022/06/04 03:27:45;;;;;;;;;35.00;32.75;;;;;18.28;76.11;101104.09;5042917;28;45183;-67
2022/06/04 03:30:13;;;;;;;;;31.25;30.25;;;;;18.26;76.21;101097.94;5038741;28;47027;-67
2022/06/04 03:32:38;;;;;;;;;36.50;32.00;;;;;18.29;76.41;101102.22;5042054;28;45818;-67
2022/06/04 03:35:04;;;;;;;;;36.75;32.25;;;;;18.26;76.88;101116.34;5039059;28;45516;-67
2022/06/04 03:37:29;;;;;;;;;32.50;29.75;;;;;18.25;76.94;101114.66;5042661;28;45431;-68
2022/06/04 03:39:55;;;;;;;;;45.50;38.25;;;;;18.20;76.96;101103.34;5038293;28;46403;-68
2022/06/04 03:42:20;;;;;;;;;43.00;36.25;;;;;18.26;76.86;101108.94;5042482;28;45416;-68
2022/06/04 03:44:49;;;;;;;;;38.75;33.25;;;;;18.22;77.32;101101.25;5037645;28;45424;-68
2022/06/04 03:47:16;;;;;;;;;36.75;31.25;;;;;18.22;77.49;101113.13;5039704;28;45381;-68
2022/06/04 03:49:43;;;;;;;;;30.25;30.25;;;;;18.19;77.13;101115.41;5037280;28;45223;-68
2022/06/04 03:52:11;;;;;;;;;37.50;32.25;;;;;18.10;77.56;101122.03;5045236;28;45255;-68
2022/06/04 03:54:55;;;;;;;;;34.50;31.00;;;;;18.07;78.14;101130.66;5044203;28;45406;-68
2022/06/04 03:57:45;;;;;;;;;26.75;25.25;;;;;18.06;77.87;101143.53;5063109;28;45498;-68
2022/06/04 04:00:29;;;;;;;;;29.75;28.25;;;;;18.10;78.29;101152.28;5045864;28;45405;-68
2022/06/04 04:02:56;;;;;;;;;34.25;27.75;;;;;18.20;77.79;101158.34;5047175;28;45246;-68
2022/06/04 04:05:25;;;;;;;;;29.50;27.00;;;;;18.22;76.91;101146.13;5045166;28;45441;-68
2022/06/04 04:07:52;;;;;;;;;25.75;25.75;;;;;18.29;76.64;101148.97;5048724;28;45687;-68
2022/06/04 04:10:18;;;;;;;;;33.50;32.50;;;;;18.32;76.58;101151.34;5056804;28;46841;-68
2022/06/04 04:12:44;;;;;;;;;32.50;29.00;;;;;18.22;76.28;101139.75;5048211;28;45223;-68
2022/06/04 04:15:11;;;;;;;;;30.25;26.00;;;;;18.31;76.01;101152.38;5042854;28;45393;-68
2022/06/04 04:17:39;;;;;;;;;30.75;29.00;;;;;18.35;75.64;101167.47;5048843;28;45235;-68
2022/06/04 04:20:09;;;;;;;;;33.50;29.50;;;;;18.36;76.43;101182.06;5041361;28;46347;-67
2022/06/04 04:22:35;;;;;;;;;36.00;30.75;;;;;18.28;77.29;101185.75;5079994;28;45249;-68
2022/06/04 04:25:00;;;;;;;;;25.75;25.00;;;;;18.27;76.71;101186.81;5043190;28;45283;-67
2022/06/04 04:27:26;;;;;;;;;31.50;30.00;;;;;18.27;76.94;101203.31;5048677;28;45097;-67
2022/06/04 04:29:51;;;;;;;;;28.50;24.50;;;;;18.31;76.38;101223.91;5044371;28;45438;-68
2022/06/04 04:32:17;;;;;;;;;34.25;29.25;;;;;18.34;76.92;101233.69;5048118;28;45298;-67
2022/06/04 04:34:42;;;;;;;;;28.25;27.50;;;;;18.31;77.08;101220.31;5043798;28;45627;-67
2022/06/04 04:37:07;;;;;;;;;28.50;26.25;;;;;18.42;76.68;101204.19;5047450;28;45331;-67
2022/06/04 04:39:33;;;;;;;;;30.75;27.75;;;;;18.44;75.99;101199.34;5043947;28;46643;-68
2022/06/04 04:41:58;;;;;;;;;26.75;26.50;;;;;18.47;76.13;101217.38;5046036;28;45207;-67
2022/06/04 04:44:23;;;;;;;;;27.00;26.25;;;;;18.46;75.90;101229.44;5043802;28;45511;-67
2022/06/04 04:46:50;;;;;;;;;31.50;26.00;;;;;18.48;75.77;101217.19;5045653;28;45303;-67
2022/06/04 04:49:16;;;;;;;;;25.25;25.25;;;;;18.49;75.88;101207.88;5044152;28;45519;-68
2022/06/04 04:51:41;;;;;;;;;32.75;28.25;;;;;18.57;75.48;101218.84;5046119;28;45414;-67
2022/06/04 04:54:07;;;;;;;;;24.75;24.00;;;;;18.59;75.58;101230.53;5043978;28;45449;-67
2022/06/04 04:56:32;;;;;;;;;24.50;24.50;;;;;18.51;75.73;101222.31;5047860;28;45354;-68
2022/06/04 04:58:57;;;;;;;;;26.00;24.75;;;;;18.56;75.76;101241.88;5045770;28;45485;-68
2022/06/04 05:01:26;;;;;;;;;24.50;22.50;;;;;18.59;75.92;101246.19;5047598;28;45617;-68
2022/06/04 05:03:53;;;;;;;;;24.25;22.50;;;;;18.58;76.04;101230.69;5042702;28;45215;-68
2022/06/04 05:06:19;;;;;;;;;30.25;27.00;;;;;18.64;75.54;101229.94;5043645;28;45544;-68
2022/06/04 05:08:46;;;;;;;;;31.50;25.00;;;;;18.58;76.30;101239.81;5036571;28;46428;-68
2022/06/04 05:11:16;;;;;;;;;27.25;25.00;;;;;18.54;76.64;101235.72;5053321;28;45448;-68
2022/06/04 05:13:42;;;;;;;;;24.75;24.75;;;;;18.60;77.07;101225.88;5043270;28;45485;-68
2022/06/04 05:16:08;;;;;;;;;27.25;24.00;;;;;18.70;76.42;101217.34;5040427;28;45234;-68
2022/06/04 05:18:34;;;;;;;;;25.75;25.25;;;;;18.72;76.54;101212.47;5043242;28;45382;-68
2022/06/04 05:21:20;;;;;;;;;25.75;25.00;;;;;18.79;75.79;101224.44;5038947;28;45498;-68
2022/06/04 05:23:45;;;;;;;;;29.50;28.50;;;;;18.86;75.72;101228.13;5040842;28;45394;-68
2022/06/04 05:26:11;;;;;;;;;27.25;25.50;;;;;18.85;75.60;101219.03;5041287;28;45374;-68
2022/06/04 05:28:36;;;;;;;;;30.75;26.50;;;;;18.85;76.49;101215.44;5041165;28;46985;-68
2022/06/04 05:31:02;;;;;;;;;32.25;28.75;;;;;18.93;76.01;101212.56;5041080;28;45449;-68
2022/06/04 05:33:28;;;;;;;;;29.75;27.00;;;;;19.03;75.45;101194.69;5042160;28;45399;-68
2022/06/04 05:35:53;;;;;;;;;29.25;26.50;;;;;19.09;75.13;101182.06;5042381;28;45570;-68
2022/06/04 05:38:19;;;;;;;;;28.25;26.75;;;;;18.99;75.05;101181.53;5044051;28;46248;-68
2022/06/04 05:40:44;;;;;;;;;33.50;28.75;;;;;19.06;75.22;101187.97;5040406;28;45407;-68
2022/06/04 05:43:09;;;;;;;;;31.50;30.25;;;;;18.95;75.19;101196.72;5043827;28;45416;-68
2022/06/04 05:45:35;;;;;;;;;26.75;26.75;;;;;18.97;75.64;101206.50;5039566;28;45445;-68
2022/06/04 05:48:00;;;;;;;;;32.25;27.75;;;;;19.01;75.21;101212.44;5041240;28;46910;-68
2022/06/04 05:50:26;;;;;;;;;26.75;24.50;;;;;19.23;75.23;101194.06;5039532;28;45320;-69
2022/06/04 05:52:51;;;;;;;;;32.50;28.50;;;;;19.26;74.53;101189.06;5039098;28;45386;-68
2022/06/04 05:55:16;;;;;;;;;27.75;27.75;;;;;19.43;74.11;101195.19;5040953;28;45381;-68
2022/06/04 05:57:42;;;;;;;;;29.00;25.00;;;;;19.50;73.64;101200.78;5042246;28;45307;-68
2022/06/04 06:00:08;;;;;;;;;30.75;25.50;;;;;19.62;72.88;101204.72;5041509;28;45465;-68
2022/06/04 06:02:34;;;;;;;;;28.25;27.25;;;;;19.66;72.49;101219.81;5043978;28;45294;-68
2022/06/04 06:05:00;;;;;;;;;26.50;26.50;;;;;19.69;72.71;101230.47;5040827;28;45508;-68
2022/06/04 06:07:25;;;;;;;;;24.75;24.75;;;;;19.64;72.16;101238.47;5043467;28;45459;-68
2022/06/04 06:09:50;;;;;;;;;34.25;29.25;;;;;19.52;73.43;101248.28;5037557;28;45299;-69
2022/06/04 06:12:16;;;;;;;;;27.00;26.25;;;;;19.40;73.39;101261.69;5042129;28;45370;-68
2022/06/04 06:14:41;;;;;;;;;25.50;23.50;;;;;19.48;73.56;101274.53;5037347;28;45453;-68
2022/06/04 06:17:07;;;;;;;;;24.50;24.50;;;;;19.29;73.24;101271.28;5043331;28;45443;-68
2022/06/04 06:19:33;;;;;;;;;26.50;24.75;;;;;19.41;73.61;101268.91;5040474;28;45369;-68
2022/06/04 06:21:58;;;;;;;;;22.25;21.75;;;;;19.45;73.82;101260.06;5040442;28;45298;-67
2022/06/04 06:24:23;;;;;;;;;24.75;23.50;;;;;19.57;73.33;101265.97;5040017;28;45228;-68
2022/06/04 06:26:54;;;;;;;;;26.00;23.75;;;;;19.65;73.25;101276.03;5039480;28;47954;-67
2022/06/04 06:29:26;;;;;;;;;26.75;24.50;;;;;19.62;72.44;101281.91;5056181;28;45527;-67
2022/06/04 06:31:52;;;;;;;;;29.00;26.50;;;;;19.50;73.05;101300.00;5042075;28;46548;-67
2022/06/04 06:34:18;;;;;;;;;23.75;22.75;;;;;19.50;73.24;101300.00;5040434;28;45363;-67
2022/06/04 06:36:43;;;;;;;;;25.25;23.25;;;;;19.56;72.99;101304.75;5041232;28;46081;-67
2022/06/04 06:39:09;;;;;;;;;23.33;20.67;;;;;19.62;72.34;101304.81;5037630;28;45366;-68
2022/06/04 06:41:35;;;;;;;;;22.25;21.00;;;;;19.64;72.60;101321.19;5041192;28;45288;-69
2022/06/04 06:44:00;;;;;;;;;23.00;22.50;;;;;19.58;73.52;101309.00;5041226;28;45380;-69
2022/06/04 06:46:33;;;;;;;;;21.50;21.50;;;;;19.58;73.69;101313.69;5054947;28;48081;-67
2022/06/04 06:49:04;;;;;;;;;30.00;24.50;;;;;19.48;73.22;101313.97;5041045;28;45413;-68
2022/06/04 06:51:36;;;;;;;;;23.25;21.50;;;;;19.42;74.38;101289.91;5040258;28;45275;-68
2022/06/04 06:54:02;;;;;;;;;31.75;29.00;;;;;19.43;73.91;101297.97;5040927;28;45247;-68
2022/06/04 06:56:30;;;;;;;;;27.50;26.00;;;;;19.40;74.43;101314.06;5041804;28;45546;-68
2022/06/04 06:58:58;;;;;;;;;26.25;23.25;;;;;19.41;74.55;101308.34;5038879;28;45252;-70
2022/06/04 07:01:26;;;;;;;;;23.33;22.67;;;;;19.50;74.13;101300.00;5068812;28;45876;-68
2022/06/04 07:03:52;;;;;;;;;27.00;23.33;;;;;19.57;74.32;101295.44;5038727;28;45510;-68
2022/06/04 07:06:36;;;;;;;;;23.75;23.75;;;;;19.64;73.74;101286.19;5036797;28;46209;-67
2022/06/04 07:09:22;;;;;;;;;33.50;30.50;;;;;19.47;75.96;101272.81;5038268;28;45533;-68
2022/06/04 07:11:48;;;;;;;;;29.75;28.75;;;;;19.57;75.72;101254.09;5033667;28;45340;-68
2022/06/04 07:14:14;;;;;;;;;28.75;26.50;;;;;19.68;75.70;101267.34;5038749;28;45176;-68
2022/06/04 07:16:41;;;;;;;;;26.00;25.25;;;;;19.74;74.52;101266.56;5040578;28;46124;-68
2022/06/04 07:19:07;;;;;;;;;27.50;24.00;;;;;19.75;74.94;101249.81;5053130;28;45529;-70
2022/06/04 07:21:33;;;;;;;;;27.75;26.50;;;;;19.58;76.31;101255.81;5041439;28;45462;-69
2022/06/04 07:23:59;;;;;;;;;30.00;24.50;;;;;19.65;76.32;101262.25;5040676;28;45389;-69
2022/06/04 07:26:25;;;;;;;;;27.75;26.00;;;;;19.73;75.96;101262.94;5036449;28;45557;-67
2022/06/04 07:28:51;;;;;;;;;33.50;29.00;;;;;19.68;77.59;101254.41;5039818;28;45446;-68
2022/06/04 07:31:17;;;;;;;;;27.00;24.75;;;;;19.49;77.35;101265.22;5037249;28;45547;-68
2022/06/04 07:33:47;;;;;;;;;27.75;26.50;;;;;19.43;77.70;101278.69;5040614;28;45433;-67
2022/06/04 07:36:18;;;;;;;;;34.75;31.50;;;;;19.42;79.21;101295.44;5036404;28;47039;-68
2022/06/04 07:38:44;;;;;;;;;28.50;28.50;;;;;19.46;79.09;101293.97;5039635;28;45366;-67
2022/06/04 07:41:21;;;;;;;;;28.50;27.50;;;;;19.54;78.30;101304.94;5038393;28;45227;-68
2022/06/04 07:43:47;;;;;;;;;26.00;23.00;;;;;19.68;77.64;101316.97;5040216;28;45268;-68
2022/06/04 07:46:13;;;;;;;;;27.00;24.75;;;;;19.72;77.06;101305.38;5039937;28;45250;-67
2022/06/04 07:48:39;;;;;;;;;25.50;24.50;;;;;19.80;77.61;101296.97;5041193;28;45596;-67
2022/06/04 07:51:04;;;;;;;;;33.25;30.00;;;;;19.83;76.33;101293.81;5054831;28;45517;-68
2022/06/04 07:53:30;;;;;;;;;34.00;31.00;;;;;19.62;77.66;101301.22;5041445;28;45390;-67
2022/06/04 07:55:56;;;;;;;;;30.50;30.50;;;;;19.55;77.97;101305.78;5033485;28;45406;-68
2022/06/04 07:58:21;;;;;;;;;32.25;29.25;;;;;19.52;77.95;101311.69;5040802;28;45414;-68
2022/06/04 08:00:53;;;;;;;;;34.00;32.00;;;;;19.50;78.52;101316.53;5031914;28;45448;-67
2022/06/04 08:03:18;;;;;;;;;32.00;31.00;;;;;19.62;78.55;101315.84;5041876;28;45310;-68
2022/06/04 08:05:43;;;;;;;;;35.00;30.25;;;;;19.75;78.61;101316.00;5030624;28;45720;-68
2022/06/04 08:08:09;;;;;;;;;36.75;30.75;;;;;19.85;77.72;101315.69;5041661;28;45334;-68
2022/06/04 08:10:34;;;;;;;;;36.25;31.50;;;;;19.84;78.24;101308.47;5039651;28;45524;-67
2022/06/04 08:13:01;;;;;;;;;30.75;29.00;;;;;19.83;77.27;101281.94;5042233;28;45666;-68
2022/06/04 08:15:26;;;;;;;;;32.75;31.00;;;;;20.03;77.00;101283.00;5036193;28;46701;-67
2022/06/04 08:17:52;;;;;;;;;36.25;32.50;;;;;20.15;76.39;101262.13;5041534;28;45397;-68
2022/06/04 08:20:19;;;;;;;;;33.75;31.75;;;;;20.23;76.04;101263.88;5035395;28;45431;-68
2022/06/04 08:22:45;;;;;;;;;35.75;31.75;;;;;20.20;76.85;101292.72;5041821;28;45282;-68
2022/06/04 08:25:10;;;;;;;;;37.00;32.50;;;;;19.98;76.63;101288.25;5035850;28;46243;-69
2022/06/04 08:27:36;;;;;;;;;33.50;31.75;;;;;20.12;77.07;101265.25;5041193;28;45279;-68
2022/06/04 08:30:02;;;;;;;;;35.75;32.25;;;;;20.27;76.46;101280.88;5034996;28;45385;-68
2022/06/04 08:32:27;;;;;;;;;34.25;30.25;;;;;20.27;76.98;101300.19;5040761;28;45549;-68
2022/06/04 08:34:52;;;;;;;;;34.00;30.25;;;;;20.37;75.76;101311.78;5034740;28;45444;-68
2022/06/04 08:37:17;;;;;;;;;32.75;30.75;;;;;20.37;76.61;101309.03;5042538;28;45203;-68
2022/06/04 08:39:43;;;;;;;;;32.50;31.50;;;;;20.47;76.71;101304.88;5037916;28;47958;-68
2022/06/04 08:42:11;;;;;;;;;33.75;32.50;;;;;20.64;76.79;101313.72;5045822;28;45267;-68
2022/06/04 08:44:46;;;;;;;;;36.75;32.25;;;;;20.81;75.66;101309.59;5040242;28;46006;-68
2022/06/04 08:47:35;;;;;;;;;31.75;30.00;;;;;21.13;75.59;101307.22;5044828;28;45393;-69
2022/06/04 08:50:18;;;;;;;;;33.50;30.25;;;;;21.37;73.38;101312.28;5051862;28;45314;-68
2022/06/04 08:52:49;;;;;;;;;32.75;30.75;;;;;21.65;72.36;101309.44;5044927;28;45438;-70
2022/06/04 08:58:50;;;;;;;;;32.00;30.25;;;;;21.67;72.38;101313.69;5037827;28;45232;-68
2022/06/04 09:01:25;;;;;;;;;36.00;33.75;;;;;22.03;72.59;101312.56;5031347;28;45351;-68
2022/06/04 09:03:58;;;;;;;;;38.00;35.50;;;;;22.04;70.15;101314.25;5043459;28;45469;-68
2022/06/04 09:06:59;;;;;;;;;34.75;30.50;;;;;22.15;70.18;101324.69;5054624;28;48229;-67
2022/06/04 09:09:42;;;;;;;;;26.75;23.25;;;;;22.23;69.16;101307.03;5041240;28;45429;-68
2022/06/04 09:12:21;;;;;;;;;31.25;29.00;;;;;22.64;68.90;101323.47;5044583;28;45436;-69
2022/06/04 09:15:02;;;;;;;;;31.00;30.50;;;;;23.08;67.83;101322.81;5041449;28;45284;-69
2022/06/04 09:17:40;;;;;;;;;30.75;25.00;;;;;23.41;65.67;101328.25;5044398;28;45298;-68
2022/06/04 09:20:17;;;;;;;;;27.00;26.00;;;;;23.61;65.87;101329.06;5034551;28;45520;-69
2022/06/04 09:22:44;;;;;;;;;29.00;25.25;;;;;23.86;65.30;101329.16;5044496;28;45267;-69
2022/06/04 09:25:15;;;;;;;;;27.75;27.00;;;;;24.03;64.65;101330.34;5039672;28;45659;-69
2022/06/04 09:27:43;;;;;;;;;27.00;26.75;;;;;24.27;63.58;101331.50;5044390;28;46299;-68
2022/06/04 09:30:25;;;;;;;;;24.00;24.00;;;;;24.47;62.41;101325.81;5053212;28;45858;-69
2022/06/04 09:33:38;;;;;;;;;30.75;29.00;;;;;24.64;61.69;101325.00;5042879;28;45341;-68
2022/06/04 09:36:04;;;;;;;;;26.50;26.00;;;;;24.99;61.21;101327.28;5054466;28;45272;-68
2022/06/04 09:38:33;;;;;;;;;24.25;23.25;;;;;25.19;59.79;101326.00;5041695;28;47444;-69
2022/06/04 09:41:19;;;;;;;;;22.50;21.25;;;;;25.53;60.22;101329.25;5054513;28;45406;-69
2022/06/04 09:43:59;;;;;;;;;25.50;24.25;;;;;25.50;57.38;101322.22;5041497;28;45377;-68
2022/06/04 09:46:25;;;;;;;;;23.25;23.25;;;;;25.74;57.97;101320.44;5057154;28;45212;-68
2022/06/04 09:48:53;;;;;;;;;22.25;20.75;;;;;25.72;56.65;101307.84;5040883;28;45480;-68
2022/06/04 09:51:26;;;;;;;;;24.75;24.75;;;;;25.50;57.32;101307.44;5057463;28;45273;-68
2022/06/04 09:54:04;;;;;;;;;21.00;19.67;;;;;25.85;57.42;101310.47;5041162;28;45500;-68
2022/06/04 09:56:41;;;;;;;;;22.00;20.00;;;;;26.39;56.92;101316.94;5055756;28;45579;-68
2022/06/04 09:59:37;;;;;;;;;21.33;20.67;;;;;26.77;53.68;101320.16;5041237;28;45507;-69
2022/06/04 10:02:18;;;;;;;;;16.00;16.00;;;;;26.95;54.54;101317.31;5042948;28;45435;-69
2022/06/04 10:04:49;;;;;;;;;18.00;16.33;;;;;27.31;52.96;101304.16;5027582;28;45376;-69
2022/06/04 10:07:27;;;;;;;;;16.00;15.33;;;;;27.60;52.14;101307.91;5043887;28;45378;-68
2022/06/04 10:09:58;;;;;;;;;17.00;15.00;;;;;27.64;49.99;101312.72;5031738;28;45346;-68
2022/06/04 10:15:41;;;;;;;;;16.33;14.33;;;;;28.11;49.49;101310.59;5035892;28;45330;-67
2022/06/04 10:18:18;;;;;;;;;20.00;20.00;;;;;28.13;49.31;101318.72;5043947;28;45280;-67
2022/06/04 10:20:56;;;;;;;;;21.00;19.00;;;;;28.06;47.39;101309.63;5038673;28;46424;-67
2022/06/04 10:23:22;;;;;;;;;12.00;12.00;;;;;28.31;48.94;101312.94;5058289;28;45937;-68
2022/06/04 10:25:54;;;;;;;;;15.33;11.67;;;;;28.72;45.26;101313.63;5038436;28;45412;-67
2022/06/04 10:28:50;;;;;;;;;9.67;9.67;;;;;28.98;46.24;101304.59;5043258;28;45459;-68
2022/06/04 10:31:48;;;;;;;;;10.33;10.33;;;;;29.32;43.92;101300.59;5028618;28;46889;-68
2022/06/04 10:34:36;;;;;;;;;15.00;14.33;;;;;29.53;44.09;101306.50;5039585;28;45327;-68
2022/06/04 10:37:28;;;;;;;;;9.67;8.67;;;;;29.85;42.94;101298.22;5042881;28;45309;-68
2022/06/04 10:40:44;;;;;;;;;10.00;10.00;;;;;30.05;41.02;101293.69;5038756;28;45416;-68
2022/06/04 10:43:23;;;;;;;;;9.33;9.33;;;;;30.48;41.27;101300.28;5041974;28;45691;-68
2022/06/04 10:45:57;;;;;;;;;9.67;9.00;;;;;30.58;38.72;101296.75;5037090;28;45329;-68
2022/06/04 10:48:38;;;;;;;;;11.00;11.00;;;;;30.32;40.54;101301.28;5041498;28;45255;-68
2022/06/04 10:51:26;;;;;;;;;10.00;10.00;;;;;30.58;38.96;101291.13;5040723;28;45303;-68
2022/06/04 10:53:51;;;;;;;;;12.33;12.00;;;;;29.62;41.35;101299.34;5033852;28;46289;-68
2022/06/04 10:56:25;;;;;;;;;8.00;8.00;;;;;30.30;41.12;101295.06;5042801;28;45452;-69
2022/06/04 10:59:02;;;;;;;;;9.33;9.33;;;;;30.07;38.32;101290.63;5031622;28;45514;-69
2022/06/04 11:01:52;;;;;;;;;14.67;13.00;;;;;30.29;40.16;101290.56;5041268;28;45257;-69
2022/06/04 11:04:56;;;;;;;;;15.00;13.00;;;;;30.68;38.47;101288.44;5037753;28;46097;-69
2022/06/04 11:07:52;;;;;;;;;9.00;9.00;;;;;30.04;38.01;101286.41;5042124;28;45445;-68
2022/06/04 11:10:22;;;;;;;;;12.33;10.33;;;;;30.17;39.00;101283.16;5035538;28;45397;-68
2022/06/04 11:13:20;;;;;;;;;12.33;12.33;;;;;29.96;39.16;101286.88;5041850;28;45259;-68
2022/06/04 11:15:53;;;;;;;;;12.00;11.33;;;;;29.92;39.65;101285.69;5026377;28;46276;-68
2022/06/04 11:18:46;;;;;;;;;9.67;9.67;;;;;30.12;39.25;101268.25;5042762;28;45637;-68
2022/06/04 11:21:37;;;;;;;;;14.00;11.33;;;;;30.21;39.49;101268.63;5037791;28;45358;-68
2022/06/04 11:24:11;;;;;;;;;12.33;11.00;;;;;30.17;38.82;101263.53;5027106;28;46220;-68
2022/06/04 11:26:49;;;;;;;;;9.33;9.33;;;;;30.53;39.18;101266.72;5039088;28;45421;-68
2022/06/04 11:29:14;;;;;;;;;12.00;10.00;;;;;31.45;37.66;101263.38;5061199;28;45476;-68
2022/06/04 11:32:06;;;;;;;;;11.00;11.00;;;;;32.15;36.88;101261.91;5039836;28;45350;-68
2022/06/04 11:35:08;;;;;;;;;14.33;13.00;;;;;32.14;35.77;101268.66;5030508;28;45356;-68
2022/06/04 11:37:51;;;;;;;;;10.00;10.00;;;;;31.36;37.03;101259.38;5042374;28;46715;-68
2022/06/04 11:40:32;;;;;;;;;9.67;9.67;;;;;31.91;35.69;101255.13;5039310;28;45423;-68
2022/06/04 11:42:59;;;;;;;;;10.00;10.00;;;;;32.28;35.24;101258.56;5041728;28;45392;-69
2022/06/04 11:45:52;;;;;;;;;10.00;10.00;;;;;31.84;34.84;101248.94;5040202;28;45481;-68